Kahneeta, Oregon
Current Conditions -  °F | °C
As of 11:56 PM on Sunday 21 Dec 2014 (Local Time) from KRDM Reporting Station
Overcast Overcast  
Wind Chill: 40°   Ceiling: 4700
Heat Index: 40°   Visibility: 10mi
Dew Point: 40°   Wind: 0mph
Humidity: 100%   Direction: NA
Pressure: 30.11"   Gusts: NA
Location:  44.7239°N, 121.498°W
Report Text: KRDM 220756Z AUTO 00000KT 10SM SCT038 OVC047 04/04 A3011 RMK AO2 SLP199 T00440044 400940044
Loading
Personal Weather Stations






























Interactive Weather Map New forecast layout! Learn more

10-Day Weather Forecast

Advertisements
Track Severe Weather on mobile